createdAt,value
2022-08-04T00:00:59.973Z,955.82
2022-08-04T00:03:58.222Z,955.82
2022-08-04T00:06:59.061Z,955.71
2022-08-04T00:09:58.980Z,955.7
2022-08-04T00:12:58.415Z,955.79
2022-08-04T00:15:58.905Z,955.73
2022-08-04T00:18:59.273Z,955.79
2022-08-04T01:46:11.440Z,955.82
2022-08-04T01:48:58.807Z,955.7
2022-08-04T01:51:58.511Z,955.7
2022-08-04T01:54:57.936Z,955.74
2022-08-04T01:57:58.665Z,955.72
2022-08-04T02:00:59.394Z,955.74
2022-08-04T02:04:18.486Z,955.7
2022-08-04T02:06:58.711Z,955.7
2022-08-04T02:09:59.160Z,955.7
2022-08-04T02:12:59.337Z,955.66
2022-08-04T02:15:59.610Z,955.67
2022-08-04T02:18:59.278Z,955.57
2022-08-04T02:21:59.246Z,955.51
2022-08-04T02:24:58.346Z,955.6
2022-08-04T02:27:59.974Z,955.57
2022-08-04T02:30:59.251Z,955.53
2022-08-04T02:33:59.169Z,955.5
2022-08-04T02:36:59.136Z,955.47
2022-08-04T02:39:59.221Z,955.49
2022-08-04T02:42:59.021Z,955.42
2022-08-04T02:45:59.547Z,955.48
2022-08-04T02:48:58.929Z,955.39
2022-08-04T02:51:58.786Z,955.41
2022-08-04T02:54:58.891Z,955.44
2022-08-04T02:57:58.803Z,955.26
2022-08-04T03:00:59.768Z,955.35
2022-08-04T03:03:59.138Z,955.26
2022-08-04T03:06:59.258Z,955.31
2022-08-04T03:09:58.865Z,955.28
2022-08-04T03:12:58.957Z,955.29
2022-08-04T03:15:59.628Z,955.31
2022-08-04T03:18:58.966Z,955.32
2022-08-04T03:21:59.342Z,955.34
2022-08-04T03:24:59.314Z,955.31
2022-08-04T03:27:59.126Z,955.32
2022-08-04T03:30:59.463Z,955.3
2022-08-04T03:33:58.390Z,955.44
2022-08-04T03:36:58.570Z,955.38
2022-08-04T03:39:59.229Z,955.38
2022-08-04T03:42:58.570Z,955.4
2022-08-04T03:45:59.169Z,955.4
2022-08-04T03:48:58.925Z,955.39
2022-08-04T03:51:58.800Z,955.36
2022-08-04T03:54:58.946Z,955.39
2022-08-04T03:57:58.901Z,955.32
2022-08-04T04:00:59.590Z,955.39
2022-08-04T04:03:58.830Z,955.36
2022-08-04T04:06:58.935Z,955.3
2022-08-04T04:10:05.891Z,955.25
2022-08-04T04:12:58.701Z,955.15
2022-08-04T04:15:58.927Z,955.13
2022-08-04T04:18:58.753Z,955.21
2022-08-04T04:21:58.728Z,955.19
2022-08-04T04:24:58.670Z,955.28
2022-08-04T04:28:44.598Z,955.3
2022-08-04T04:30:58.521Z,955.33
2022-08-04T04:33:58.512Z,955.27
2022-08-04T04:36:59.412Z,955.23
2022-08-04T04:39:58.573Z,955.37
2022-08-04T04:42:58.740Z,955.37
2022-08-04T04:45:58.576Z,955.35
2022-08-04T04:48:59.961Z,955.39
2022-08-04T04:51:59.240Z,955.48
2022-08-04T04:54:59.288Z,955.43
2022-08-04T04:57:58.995Z,955.5
2022-08-04T05:01:00.190Z,955.48
2022-08-04T05:03:59.510Z,955.42
2022-08-04T05:07:00.390Z,955.46
2022-08-04T05:09:59.751Z,955.58
2022-08-04T05:14:37.889Z,955.6
2022-08-04T05:15:59.614Z,955.58
2022-08-04T05:18:59.121Z,955.6
2022-08-04T05:21:59.206Z,955.62
2022-08-04T05:24:58.896Z,955.61
2022-08-04T05:27:58.963Z,955.62
2022-08-04T05:30:59.792Z,955.58
2022-08-04T05:33:58.680Z,955.6
2022-08-04T05:36:59.596Z,955.6
2022-08-04T05:39:59.153Z,955.56
2022-08-04T05:42:58.943Z,955.57
2022-08-04T05:46:00.272Z,955.54
2022-08-04T05:48:58.906Z,955.63
2022-08-04T05:51:59.397Z,955.64
2022-08-04T05:54:59.296Z,955.71
2022-08-04T05:57:59.342Z,955.58
2022-08-04T06:00:59.405Z,955.77
2022-08-04T06:03:59.302Z,955.64
2022-08-04T06:06:59.185Z,955.75
2022-08-04T06:09:59.592Z,955.68
2022-08-04T06:12:58.532Z,955.69
2022-08-04T06:16:00.200Z,955.64
2022-08-04T06:20:00.308Z,955.71
2022-08-04T06:21:59.091Z,955.65
2022-08-04T06:24:59.247Z,955.6
2022-08-04T06:27:59.143Z,955.66
2022-08-04T06:30:58.965Z,955.72
2022-08-04T06:33:58.940Z,955.71
2022-08-04T06:36:58.745Z,955.67
2022-08-04T06:39:58.870Z,955.72
2022-08-04T06:42:58.932Z,955.67
2022-08-04T06:45:58.757Z,955.72
2022-08-04T06:48:58.732Z,955.74
2022-08-04T06:51:59.541Z,955.6
2022-08-04T06:54:58.637Z,955.73
2022-08-04T06:58:02.649Z,955.7
2022-08-04T07:00:59.529Z,955.68
2022-08-04T07:03:59.204Z,955.7
2022-08-04T07:06:58.528Z,955.74
2022-08-04T07:09:59.312Z,955.71
2022-08-04T07:12:58.759Z,955.7
2022-08-04T07:15:59.779Z,955.74
2022-08-04T07:18:58.436Z,955.79
2022-08-04T07:22:16.292Z,955.74
2022-08-04T07:24:59.074Z,955.75
2022-08-04T07:27:58.508Z,955.67
2022-08-04T07:30:59.243Z,955.64
2022-08-04T07:34:16.640Z,955.69
2022-08-04T07:36:59.108Z,955.76
2022-08-04T07:39:59.200Z,955.69
2022-08-04T07:42:59.067Z,955.75
2022-08-04T07:45:58.953Z,955.72
2022-08-04T07:48:58.895Z,955.73
2022-08-04T07:51:58.757Z,955.75
2022-08-04T07:54:58.697Z,955.75
2022-08-04T07:57:59.035Z,955.72
2022-08-04T08:00:59.733Z,955.73
2022-08-04T08:03:59.196Z,955.69
2022-08-04T08:06:58.624Z,955.68
2022-08-04T08:09:58.813Z,955.72
2022-08-04T08:12:59.051Z,955.72
2022-08-04T08:15:58.552Z,955.63
2022-08-04T08:18:59.489Z,955.62
2022-08-04T08:22:00.556Z,955.62
2022-08-04T08:24:59.350Z,955.72
2022-08-04T08:27:59.512Z,955.62
2022-08-04T08:30:59.521Z,955.73
2022-08-04T08:33:59.328Z,955.71
2022-08-04T08:36:58.675Z,955.63
2022-08-04T08:39:58.561Z,955.69
2022-08-04T08:42:58.583Z,955.56
2022-08-04T08:45:59.101Z,955.58
2022-08-04T08:48:58.985Z,955.56
2022-08-04T08:51:58.849Z,955.65
2022-08-04T08:54:58.924Z,955.68
2022-08-04T08:58:00.105Z,955.63
2022-08-04T09:00:59.225Z,955.68
2022-08-04T09:03:59.168Z,955.61
2022-08-04T09:06:59.643Z,955.6
2022-08-04T09:10:00.321Z,955.8
2022-08-04T09:12:58.816Z,955.71
2022-08-04T09:15:59.732Z,955.68
2022-08-04T09:18:59.372Z,955.71
2022-08-04T09:21:59.532Z,955.7
2022-08-04T09:24:58.672Z,955.61
2022-08-04T09:28:01.689Z,955.73
2022-08-04T09:30:59.546Z,955.7
2022-08-04T09:33:58.848Z,955.68
2022-08-04T09:36:59.336Z,955.74
2022-08-04T09:39:58.715Z,955.66
2022-08-04T09:42:59.317Z,955.71
2022-08-04T09:45:59.327Z,955.66
2022-08-04T09:48:58.852Z,955.74
2022-08-04T09:51:59.727Z,955.66
2022-08-04T09:54:58.805Z,955.66
2022-08-04T09:57:59.171Z,955.63
2022-08-04T10:00:59.527Z,955.59
2022-08-04T10:03:59.555Z,955.6
2022-08-04T10:06:58.695Z,955.63
2022-08-04T10:09:58.991Z,955.6
2022-08-04T10:12:58.953Z,955.6
2022-08-04T10:15:58.860Z,955.45
2022-08-04T10:18:58.809Z,955.44
2022-08-04T10:22:28.958Z,955.45
2022-08-04T10:24:58.885Z,955.34
2022-08-04T10:27:58.656Z,955.37
2022-08-04T10:30:59.090Z,955.32
2022-08-04T10:33:58.985Z,955.34
2022-08-04T10:36:58.537Z,955.28
2022-08-04T10:39:59.601Z,955.26
2022-08-04T10:42:58.837Z,955.28
2022-08-04T10:45:58.719Z,955.25
2022-08-04T10:48:59.407Z,955.26
2022-08-04T10:51:59.611Z,955.19
2022-08-04T10:54:59.397Z,955.08
2022-08-04T10:57:59.327Z,955.08
2022-08-04T11:00:59.334Z,955.07
2022-08-04T11:04:15.833Z,955.1
2022-08-04T11:06:59.725Z,955.13
2022-08-04T11:09:59.236Z,955.19
2022-08-04T11:12:59.123Z,955.1
2022-08-04T11:15:59.301Z,955.07
2022-08-04T11:18:58.603Z,955.12
2022-08-04T11:21:58.559Z,955.12
2022-08-04T11:24:59.242Z,955.06
2022-08-04T11:27:58.896Z,955.15
2022-08-04T11:30:59.322Z,955.16
2022-08-04T11:33:59.067Z,955.06
2022-08-04T11:36:59.237Z,955.1
2022-08-04T11:39:59.468Z,955.04
2022-08-04T11:42:59.727Z,955.12
2022-08-04T11:45:59.048Z,955.1
2022-08-04T11:48:59.047Z,955.01
2022-08-04T11:51:59.543Z,955.0
2022-08-04T11:54:58.669Z,955.01
2022-08-04T11:57:58.974Z,955.0
2022-08-04T12:01:00.311Z,955.11
2022-08-04T12:03:59.638Z,955.01
2022-08-04T12:07:21.766Z,954.96
2022-08-04T12:09:59.352Z,954.96
2022-08-04T12:12:59.350Z,955.06
2022-08-04T12:15:59.482Z,954.98
2022-08-04T12:18:58.398Z,954.99
2022-08-04T12:21:58.325Z,954.96
2022-08-04T12:24:59.368Z,954.99
2022-08-04T12:27:59.184Z,954.92
2022-08-04T12:31:03.332Z,954.9
2022-08-04T12:34:05.370Z,954.9
2022-08-04T12:36:58.706Z,954.94
2022-08-04T12:40:27.603Z,954.9
2022-08-04T12:42:59.833Z,954.86
2022-08-04T12:45:58.888Z,954.81
2022-08-04T12:48:59.058Z,954.87
2022-08-04T12:52:08.347Z,954.88
2022-08-04T12:54:59.320Z,954.75
2022-08-04T12:57:59.038Z,954.77
2022-08-04T13:00:59.128Z,954.66
2022-08-04T13:03:59.192Z,954.73
2022-08-04T13:06:58.513Z,954.73
2022-08-04T13:09:58.914Z,954.74
2022-08-04T13:12:59.489Z,954.77
2022-08-04T13:15:59.479Z,954.66
2022-08-04T13:18:58.411Z,954.63
2022-08-04T13:22:03.071Z,954.63
2022-08-04T13:26:41.574Z,954.64
2022-08-04T13:27:58.654Z,954.52
2022-08-04T13:30:59.366Z,954.58
2022-08-04T13:33:59.221Z,954.62
2022-08-04T13:36:59.200Z,954.59
2022-08-04T13:39:59.817Z,954.4
2022-08-04T13:42:59.043Z,954.36
2022-08-04T13:45:58.743Z,954.4
2022-08-04T13:51:59.190Z,954.36
2022-08-04T13:54:58.743Z,954.31
2022-08-04T13:57:59.704Z,954.34
2022-08-04T14:00:59.075Z,954.25
2022-08-04T14:03:58.924Z,954.24
2022-08-04T14:06:58.653Z,954.18
2022-08-04T14:10:03.541Z,954.2
2022-08-04T14:12:59.282Z,954.15
2022-08-04T14:16:03.760Z,954.16
2022-08-04T14:18:59.616Z,954.14
2022-08-04T14:21:59.575Z,954.14
2022-08-04T14:24:59.033Z,954.09
2022-08-04T14:27:59.392Z,954.01
2022-08-04T14:30:59.460Z,954.05
2022-08-04T14:34:03.983Z,953.89
2022-08-04T14:37:16.312Z,954.1
2022-08-04T14:40:17.367Z,954.02
2022-08-04T14:42:59.100Z,954.05
2022-08-04T14:45:59.269Z,953.99
2022-08-04T14:48:59.165Z,953.97
2022-08-04T14:51:59.343Z,954.1
2022-08-04T14:54:59.188Z,953.91
2022-08-04T14:58:35.957Z,954.05
2022-08-04T15:00:59.894Z,953.92
2022-08-04T15:03:59.011Z,954.03
2022-08-04T15:06:59.335Z,953.93
2022-08-04T15:09:59.456Z,953.91
2022-08-04T15:12:58.888Z,953.85
2022-08-04T15:16:06.431Z,953.88
2022-08-04T15:19:00.727Z,953.85
2022-08-04T15:21:58.771Z,953.85
2022-08-04T15:24:59.972Z,953.85
2022-08-04T15:27:58.678Z,953.75
2022-08-04T15:30:59.617Z,953.82
2022-08-04T15:33:59.007Z,953.76
2022-08-04T15:36:58.629Z,953.79
2022-08-04T15:40:00.541Z,953.85
2022-08-04T15:42:59.509Z,953.77
2022-08-04T15:46:37.420Z,953.78
2022-08-04T15:48:58.657Z,953.69
2022-08-04T15:52:00.067Z,953.71
2022-08-04T15:54:59.622Z,953.72
2022-08-04T15:57:59.691Z,953.72
2022-08-04T16:01:00.234Z,953.77
2022-08-04T16:04:01.517Z,953.69
2022-08-04T16:06:58.573Z,953.81
2022-08-04T16:09:59.993Z,953.78
2022-08-04T16:12:59.556Z,953.66
2022-08-04T16:16:03.224Z,953.66
2022-08-04T16:18:59.647Z,953.71
2022-08-04T16:22:00.099Z,953.64
2022-08-04T16:24:59.923Z,953.75
2022-08-04T16:27:59.228Z,953.62
2022-08-04T16:31:01.158Z,953.67
2022-08-04T16:34:04.979Z,953.58
2022-08-04T16:36:59.789Z,953.58
2022-08-04T16:39:59.603Z,953.55
2022-08-04T16:42:59.159Z,953.55
2022-08-04T16:45:59.889Z,953.55
2022-08-04T16:48:59.955Z,953.57
2022-08-04T16:51:59.241Z,953.54
2022-08-04T16:54:58.852Z,953.42
2022-08-04T16:57:59.880Z,953.4
2022-08-04T17:00:59.883Z,953.39
2022-08-04T17:03:59.523Z,953.3
2022-08-04T17:06:59.034Z,953.45
2022-08-04T17:09:59.844Z,953.4
2022-08-04T17:13:20.596Z,953.35
2022-08-04T17:15:59.546Z,953.32
2022-08-04T17:18:59.281Z,953.33
2022-08-04T17:22:04.024Z,953.31
2022-08-04T17:24:59.058Z,953.29
2022-08-04T17:28:19.630Z,953.31
2022-08-04T17:30:59.037Z,953.28
2022-08-04T17:33:59.236Z,953.26
2022-08-04T17:37:17.688Z,953.21
2022-08-04T17:39:59.479Z,953.22
2022-08-04T17:42:59.443Z,953.24
2022-08-04T17:45:59.113Z,953.26
2022-08-04T17:48:59.462Z,953.25
2022-08-04T17:52:06.482Z,953.26
2022-08-04T17:54:59.368Z,953.26
2022-08-04T17:57:58.638Z,953.21
2022-08-04T18:01:25.614Z,953.27
2022-08-04T18:03:58.753Z,953.34
2022-08-04T18:07:00.130Z,953.22
2022-08-04T18:10:07.844Z,953.3
2022-08-04T18:12:59.478Z,953.32
2022-08-04T18:15:58.825Z,953.33
2022-08-04T18:18:58.338Z,953.27
2022-08-04T18:22:01.120Z,953.3
2022-08-04T18:24:58.876Z,953.3
2022-08-04T18:27:59.205Z,953.19
2022-08-04T18:30:59.044Z,953.35
2022-08-04T18:33:59.550Z,953.38
2022-08-04T18:36:59.348Z,953.32
2022-08-04T18:40:17.264Z,953.33
2022-08-04T18:43:00.057Z,953.38
2022-08-04T18:48:58.943Z,953.34
2022-08-04T18:51:58.883Z,953.45
2022-08-04T18:54:58.845Z,953.42
2022-08-04T18:58:01.699Z,953.57
2022-08-04T19:01:00.422Z,953.45
2022-08-04T19:03:59.751Z,953.46
2022-08-04T19:06:58.697Z,953.43
2022-08-04T19:09:59.704Z,953.51
2022-08-04T19:12:59.410Z,953.57
2022-08-04T19:15:59.152Z,953.54
2022-08-04T19:18:58.781Z,953.57
2022-08-04T19:22:02.290Z,953.57
2022-08-04T19:24:59.119Z,953.58
2022-08-04T19:27:59.024Z,953.68
2022-08-04T19:30:59.084Z,953.65
2022-08-04T19:36:59.517Z,953.69
2022-08-04T19:40:00.051Z,953.8
2022-08-04T19:43:09.128Z,953.74
2022-08-04T19:45:59.197Z,953.71
2022-08-04T19:49:00.766Z,953.84
2022-08-04T19:51:59.144Z,953.83
2022-08-04T19:54:59.047Z,953.87
2022-08-04T19:57:58.572Z,953.88
2022-08-04T20:00:59.728Z,953.85
2022-08-04T20:04:10.125Z,953.85
2022-08-04T20:06:58.809Z,953.87
2022-08-04T20:09:59.205Z,953.81
2022-08-04T20:12:59.162Z,953.88
2022-08-04T20:15:59.455Z,953.83
2022-08-04T20:19:03.144Z,953.94
2022-08-04T20:21:58.659Z,953.94
2022-08-04T20:25:10.908Z,953.97
2022-08-04T20:28:00.869Z,953.96
2022-08-04T20:30:58.972Z,953.9
2022-08-04T20:33:58.886Z,953.9
2022-08-04T20:36:58.485Z,953.98
2022-08-04T20:40:00.072Z,953.84
2022-08-04T20:42:59.553Z,953.91
2022-08-04T20:45:59.573Z,953.94
2022-08-04T20:48:58.710Z,954.0
2022-08-04T20:51:58.962Z,953.9
2022-08-04T20:54:59.269Z,953.86
2022-08-04T20:58:03.460Z,953.9
2022-08-04T21:01:00.043Z,953.9
2022-08-04T21:04:00.621Z,953.86
2022-08-04T21:06:59.296Z,953.97
2022-08-04T21:09:59.267Z,953.91
2022-08-04T21:12:59.709Z,953.96
2022-08-04T21:15:59.636Z,953.99
2022-08-04T21:18:59.405Z,954.02
2022-08-04T21:21:58.868Z,953.95
2022-08-04T21:24:58.799Z,953.92
2022-08-04T21:28:04.090Z,953.93
2022-08-04T21:30:59.185Z,953.98
2022-08-04T21:33:58.683Z,953.95
2022-08-04T21:36:59.065Z,953.89
2022-08-04T21:40:09.164Z,953.96
2022-08-04T21:42:59.125Z,953.91
2022-08-04T21:46:04.619Z,953.73
2022-08-04T21:48:58.487Z,953.76
2022-08-04T21:52:01.651Z,953.81
2022-08-04T21:54:58.954Z,953.82
2022-08-04T21:57:58.718Z,953.8
2022-08-04T22:00:59.342Z,953.8
2022-08-04T22:03:58.978Z,953.83
2022-08-04T22:07:03.171Z,953.79
2022-08-04T22:10:00.597Z,953.73
2022-08-04T22:12:58.329Z,953.84
2022-08-04T22:16:05.469Z,953.74
2022-08-04T22:18:59.095Z,953.74
2022-08-04T22:21:58.044Z,953.74
2022-08-04T22:24:59.890Z,953.77
2022-08-04T22:28:00.762Z,953.78
2022-08-04T22:30:58.965Z,953.76
2022-08-04T22:33:59.030Z,953.73
2022-08-04T22:36:58.810Z,953.65
2022-08-04T22:39:59.157Z,953.84
2022-08-04T22:42:59.254Z,953.73
2022-08-04T22:45:59.428Z,953.68
2022-08-04T22:48:58.819Z,953.68
2022-08-04T22:51:58.861Z,953.63
2022-08-04T22:54:58.749Z,953.61
2022-08-04T22:58:04.915Z,953.66
2022-08-04T23:00:59.452Z,953.66
2022-08-04T23:03:58.498Z,953.54
2022-08-04T23:06:59.074Z,953.59
2022-08-04T23:09:59.247Z,953.53
2022-08-04T23:12:58.590Z,953.55
2022-08-04T23:15:58.564Z,953.41
2022-08-04T23:18:58.318Z,953.52
2022-08-04T23:22:01.587Z,953.5
2022-08-04T23:24:58.329Z,953.45
2022-08-04T23:27:59.000Z,953.4
2022-08-04T23:31:14.376Z,953.42
2022-08-04T23:33:59.663Z,953.42
2022-08-04T23:36:59.037Z,953.49
2022-08-04T23:40:14.246Z,953.37
2022-08-04T23:42:58.943Z,953.4
2022-08-04T23:46:06.512Z,953.43
2022-08-04T23:48:58.796Z,953.42
2022-08-04T23:51:59.125Z,953.43
2022-08-04T23:54:58.931Z,953.45
2022-08-04T23:58:05.913Z,953.36
